sensor_id;sensor_type;location;lat;lon;timestamp;P1;durP1;ratioP1;P2;durP2;ratioP2
40322;SDS011;26030;51.164;17.100;2024-03-29T00:02:58;3.70;;;1.20;;
40322;SDS011;26030;51.164;17.100;2024-03-29T00:08:08;1.90;;;1.70;;
40322;SDS011;26030;51.164;17.100;2024-03-29T00:13:12;4.20;;;1.00;;
40322;SDS011;26030;51.164;17.100;2024-03-29T00:18:16;1.90;;;1.20;;
40322;SDS011;26030;51.164;17.100;2024-03-29T00:23:20;2.80;;;1.50;;
40322;SDS011;26030;51.164;17.100;2024-03-29T00:28:24;2.80;;;1.20;;
40322;SDS011;26030;51.164;17.100;2024-03-29T00:33:27;2.00;;;1.40;;
40322;SDS011;26030;51.164;17.100;2024-03-29T00:38:31;1.50;;;1.40;;
40322;SDS011;26030;51.164;17.100;2024-03-29T00:43:35;2.20;;;1.10;;
40322;SDS011;26030;51.164;17.100;2024-03-29T00:48:41;1.20;;;1.00;;
40322;SDS011;26030;51.164;17.100;2024-03-29T00:53:47;1.30;;;0.80;;
40322;SDS011;26030;51.164;17.100;2024-03-29T00:58:51;2.20;;;1.10;;
40322;SDS011;26030;51.164;17.100;2024-03-29T01:03:58;2.50;;;1.10;;
40322;SDS011;26030;51.164;17.100;2024-03-29T01:09:04;2.20;;;1.30;;
40322;SDS011;26030;51.164;17.100;2024-03-29T01:14:08;1.60;;;1.20;;
40322;SDS011;26030;51.164;17.100;2024-03-29T01:19:12;1.50;;;1.20;;
40322;SDS011;26030;51.164;17.100;2024-03-29T01:24:16;1.80;;;0.90;;
40322;SDS011;26030;51.164;17.100;2024-03-29T01:29:22;1.90;;;1.00;;
40322;SDS011;26030;51.164;17.100;2024-03-29T01:34:26;2.80;;;1.30;;
40322;SDS011;26030;51.164;17.100;2024-03-29T01:39:29;1.30;;;0.90;;
40322;SDS011;26030;51.164;17.100;2024-03-29T01:44:36;2.00;;;1.10;;
40322;SDS011;26030;51.164;17.100;2024-03-29T01:49:43;1.20;;;1.00;;
40322;SDS011;26030;51.164;17.100;2024-03-29T01:54:48;1.40;;;0.90;;
40322;SDS011;26030;51.164;17.100;2024-03-29T01:59:53;1.80;;;1.20;;
40322;SDS011;26030;51.164;17.100;2024-03-29T02:04:57;2.20;;;1.10;;
40322;SDS011;26030;51.164;17.100;2024-03-29T02:10:00;1.60;;;1.00;;
40322;SDS011;26030;51.164;17.100;2024-03-29T02:15:08;3.00;;;0.90;;
40322;SDS011;26030;51.164;17.100;2024-03-29T02:20:11;1.10;;;0.90;;
40322;SDS011;26030;51.164;17.100;2024-03-29T02:25:28;0.90;;;0.80;;
40322;SDS011;26030;51.164;17.100;2024-03-29T02:30:32;2.10;;;1.10;;
40322;SDS011;26030;51.164;17.100;2024-03-29T02:35:38;1.30;;;0.70;;
40322;SDS011;26030;51.164;17.100;2024-03-29T02:40:45;2.60;;;0.80;;
40322;SDS011;26030;51.164;17.100;2024-03-29T02:45:49;2.40;;;1.00;;
40322;SDS011;26030;51.164;17.100;2024-03-29T02:50:53;1.20;;;0.80;;
40322;SDS011;26030;51.164;17.100;2024-03-29T02:55:57;0.90;;;0.80;;
40322;SDS011;26030;51.164;17.100;2024-03-29T03:01:10;1.10;;;1.00;;
40322;SDS011;26030;51.164;17.100;2024-03-29T03:06:16;1.90;;;0.90;;
40322;SDS011;26030;51.164;17.100;2024-03-29T03:11:23;0.90;;;0.90;;
40322;SDS011;26030;51.164;17.100;2024-03-29T03:16:27;0.90;;;0.80;;
40322;SDS011;26030;51.164;17.100;2024-03-29T03:21:35;0.60;;;0.60;;
40322;SDS011;26030;51.164;17.100;2024-03-29T03:26:41;0.80;;;0.80;;
40322;SDS011;26030;51.164;17.100;2024-03-29T03:31:45;0.70;;;0.70;;
40322;SDS011;26030;51.164;17.100;2024-03-29T03:36:51;2.00;;;1.00;;
40322;SDS011;26030;51.164;17.100;2024-03-29T03:41:58;1.10;;;1.00;;
40322;SDS011;26030;51.164;17.100;2024-03-29T03:47:05;0.60;;;0.60;;
40322;SDS011;26030;51.164;17.100;2024-03-29T03:52:12;0.90;;;0.80;;
40322;SDS011;26030;51.164;17.100;2024-03-29T03:57:15;0.70;;;0.70;;
40322;SDS011;26030;51.164;17.100;2024-03-29T04:02:19;1.60;;;0.70;;
40322;SDS011;26030;51.164;17.100;2024-03-29T04:07:23;1.10;;;0.70;;
40322;SDS011;26030;51.164;17.100;2024-03-29T04:12:27;0.60;;;0.60;;
40322;SDS011;26030;51.164;17.100;2024-03-29T04:17:32;1.00;;;0.90;;
40322;SDS011;26030;51.164;17.100;2024-03-29T04:22:36;0.50;;;0.50;;
40322;SDS011;26030;51.164;17.100;2024-03-29T04:27:39;0.80;;;0.80;;
40322;SDS011;26030;51.164;17.100;2024-03-29T04:32:44;1.10;;;0.70;;
40322;SDS011;26030;51.164;17.100;2024-03-29T04:37:48;1.90;;;0.80;;
40322;SDS011;26030;51.164;17.100;2024-03-29T04:42:51;0.60;;;0.60;;
40322;SDS011;26030;51.164;17.100;2024-03-29T04:47:55;0.80;;;0.70;;
40322;SDS011;26030;51.164;17.100;2024-03-29T04:53:11;2.10;;;0.90;;
40322;SDS011;26030;51.164;17.100;2024-03-29T04:58:14;0.90;;;0.60;;
40322;SDS011;26030;51.164;17.100;2024-03-29T05:03:21;0.80;;;0.80;;
40322;SDS011;26030;51.164;17.100;2024-03-29T05:08:26;1.70;;;0.60;;
40322;SDS011;26030;51.164;17.100;2024-03-29T05:13:38;1.90;;;0.70;;
40322;SDS011;26030;51.164;17.100;2024-03-29T05:18:45;0.70;;;0.60;;
40322;SDS011;26030;51.164;17.100;2024-03-29T05:23:48;0.60;;;0.60;;
40322;SDS011;26030;51.164;17.100;2024-03-29T05:28:52;0.60;;;0.60;;
40322;SDS011;26030;51.164;17.100;2024-03-29T05:34:16;0.70;;;0.70;;
40322;SDS011;26030;51.164;17.100;2024-03-29T05:39:20;1.60;;;0.60;;
40322;SDS011;26030;51.164;17.100;2024-03-29T05:44:29;1.30;;;0.70;;
40322;SDS011;26030;51.164;17.100;2024-03-29T05:49:33;0.60;;;0.60;;
40322;SDS011;26030;51.164;17.100;2024-03-29T05:54:40;0.60;;;0.60;;
40322;SDS011;26030;51.164;17.100;2024-03-29T05:59:44;0.60;;;0.60;;
40322;SDS011;26030;51.164;17.100;2024-03-29T06:04:48;0.90;;;0.70;;
40322;SDS011;26030;51.164;17.100;2024-03-29T06:09:51;0.80;;;0.80;;
40322;SDS011;26030;51.164;17.100;2024-03-29T06:14:55;0.80;;;0.60;;
40322;SDS011;26030;51.164;17.100;2024-03-29T06:20:18;0.80;;;0.60;;
40322;SDS011;26030;51.164;17.100;2024-03-29T06:25:22;0.60;;;0.60;;
40322;SDS011;26030;51.164;17.100;2024-03-29T06:30:25;1.80;;;0.70;;
40322;SDS011;26030;51.164;17.100;2024-03-29T06:35:29;2.30;;;0.60;;
40322;SDS011;26030;51.164;17.100;2024-03-29T06:40:36;0.80;;;0.70;;
40322;SDS011;26030;51.164;17.100;2024-03-29T06:45:40;0.80;;;0.50;;
40322;SDS011;26030;51.164;17.100;2024-03-29T06:50:49;1.90;;;0.60;;
40322;SDS011;26030;51.164;17.100;2024-03-29T06:55:54;0.50;;;0.50;;
40322;SDS011;26030;51.164;17.100;2024-03-29T07:00:59;1.40;;;1.20;;
40322;SDS011;26030;51.164;17.100;2024-03-29T07:06:03;2.80;;;0.60;;
40322;SDS011;26030;51.164;17.100;2024-03-29T07:11:07;4.00;;;0.50;;
40322;SDS011;26030;51.164;17.100;2024-03-29T07:16:14;6.00;;;0.90;;
40322;SDS011;26030;51.164;17.100;2024-03-29T07:21:17;2.10;;;0.80;;
40322;SDS011;26030;51.164;17.100;2024-03-29T07:26:22;0.80;;;0.60;;
40322;SDS011;26030;51.164;17.100;2024-03-29T07:31:28;1.00;;;0.90;;
40322;SDS011;26030;51.164;17.100;2024-03-29T07:36:32;2.30;;;0.60;;
40322;SDS011;26030;51.164;17.100;2024-03-29T07:41:47;3.60;;;0.70;;
40322;SDS011;26030;51.164;17.100;2024-03-29T07:46:51;1.40;;;0.60;;
40322;SDS011;26030;51.164;17.100;2024-03-29T07:51:55;1.10;;;0.60;;
40322;SDS011;26030;51.164;17.100;2024-03-29T07:56:58;4.00;;;0.80;;
40322;SDS011;26030;51.164;17.100;2024-03-29T08:02:02;21.10;;;1.80;;
40322;SDS011;26030;51.164;17.100;2024-03-29T08:07:06;11.10;;;0.80;;
40322;SDS011;26030;51.164;17.100;2024-03-29T08:12:27;2.40;;;0.90;;
40322;SDS011;26030;51.164;17.100;2024-03-29T08:17:33;2.00;;;1.00;;
40322;SDS011;26030;51.164;17.100;2024-03-29T08:22:37;4.50;;;0.80;;
40322;SDS011;26030;51.164;17.100;2024-03-29T08:27:40;2.90;;;0.80;;
40322;SDS011;26030;51.164;17.100;2024-03-29T08:32:44;3.20;;;0.90;;
40322;SDS011;26030;51.164;17.100;2024-03-29T08:37:48;5.50;;;0.70;;
40322;SDS011;26030;51.164;17.100;2024-03-29T08:42:54;2.50;;;1.50;;
40322;SDS011;26030;51.164;17.100;2024-03-29T08:47:58;4.30;;;0.60;;
40322;SDS011;26030;51.164;17.100;2024-03-29T08:53:02;2.50;;;0.70;;
40322;SDS011;26030;51.164;17.100;2024-03-29T08:58:06;2.70;;;0.90;;
40322;SDS011;26030;51.164;17.100;2024-03-29T09:03:12;5.90;;;0.80;;
40322;SDS011;26030;51.164;17.100;2024-03-29T09:08:20;1.00;;;0.70;;
40322;SDS011;26030;51.164;17.100;2024-03-29T09:13:24;2.50;;;0.60;;
40322;SDS011;26030;51.164;17.100;2024-03-29T09:18:28;1.40;;;0.70;;
40322;SDS011;26030;51.164;17.100;2024-03-29T09:23:31;1.80;;;1.00;;
40322;SDS011;26030;51.164;17.100;2024-03-29T09:28:45;1.30;;;0.70;;
40322;SDS011;26030;51.164;17.100;2024-03-29T09:33:49;2.70;;;1.00;;
40322;SDS011;26030;51.164;17.100;2024-03-29T09:38:56;1.20;;;0.60;;
40322;SDS011;26030;51.164;17.100;2024-03-29T09:44:02;0.70;;;0.60;;
40322;SDS011;26030;51.164;17.100;2024-03-29T09:49:06;0.70;;;0.70;;
40322;SDS011;26030;51.164;17.100;2024-03-29T09:54:10;0.80;;;0.50;;
40322;SDS011;26030;51.164;17.100;2024-03-29T09:59:16;1.10;;;0.60;;
40322;SDS011;26030;51.164;17.100;2024-03-29T10:04:21;0.70;;;0.40;;
40322;SDS011;26030;51.164;17.100;2024-03-29T10:09:26;3.10;;;0.60;;
40322;SDS011;26030;51.164;17.100;2024-03-29T10:14:43;1.10;;;0.50;;
40322;SDS011;26030;51.164;17.100;2024-03-29T10:19:52;0.70;;;0.70;;
40322;SDS011;26030;51.164;17.100;2024-03-29T10:25:07;1.50;;;0.70;;
40322;SDS011;26030;51.164;17.100;2024-03-29T10:30:12;1.70;;;0.40;;
40322;SDS011;26030;51.164;17.100;2024-03-29T10:35:20;1.60;;;0.90;;
40322;SDS011;26030;51.164;17.100;2024-03-29T10:40:24;1.40;;;0.60;;
40322;SDS011;26030;51.164;17.100;2024-03-29T10:45:28;0.80;;;0.60;;
40322;SDS011;26030;51.164;17.100;2024-03-29T10:50:37;2.90;;;0.70;;
40322;SDS011;26030;51.164;17.100;2024-03-29T10:55:54;1.30;;;0.70;;
40322;SDS011;26030;51.164;17.100;2024-03-29T11:01:01;1.60;;;0.50;;
40322;SDS011;26030;51.164;17.100;2024-03-29T11:06:08;1.40;;;0.90;;
40322;SDS011;26030;51.164;17.100;2024-03-29T11:11:14;0.90;;;0.60;;
40322;SDS011;26030;51.164;17.100;2024-03-29T11:16:18;0.90;;;0.60;;
40322;SDS011;26030;51.164;17.100;2024-03-29T11:21:28;0.60;;;0.40;;
40322;SDS011;26030;51.164;17.100;2024-03-29T11:26:36;1.00;;;0.80;;
40322;SDS011;26030;51.164;17.100;2024-03-29T11:31:41;1.80;;;0.60;;
40322;SDS011;26030;51.164;17.100;2024-03-29T11:36:45;0.80;;;0.60;;
40322;SDS011;26030;51.164;17.100;2024-03-29T11:41:50;1.20;;;0.50;;
40322;SDS011;26030;51.164;17.100;2024-03-29T11:46:57;3.10;;;0.70;;
40322;SDS011;26030;51.164;17.100;2024-03-29T11:52:08;2.70;;;0.70;;
40322;SDS011;26030;51.164;17.100;2024-03-29T11:57:15;2.80;;;0.60;;
40322;SDS011;26030;51.164;17.100;2024-03-29T12:02:18;3.50;;;0.90;;
40322;SDS011;26030;51.164;17.100;2024-03-29T12:07:22;1.00;;;0.60;;
40322;SDS011;26030;51.164;17.100;2024-03-29T12:12:28;0.50;;;0.40;;
40322;SDS011;26030;51.164;17.100;2024-03-29T12:17:36;1.70;;;0.60;;
40322;SDS011;26030;51.164;17.100;2024-03-29T12:22:42;1.40;;;0.60;;
40322;SDS011;26030;51.164;17.100;2024-03-29T12:27:49;1.70;;;0.50;;
40322;SDS011;26030;51.164;17.100;2024-03-29T12:33:04;1.30;;;0.40;;
40322;SDS011;26030;51.164;17.100;2024-03-29T12:38:10;3.20;;;0.70;;
40322;SDS011;26030;51.164;17.100;2024-03-29T12:43:15;1.30;;;1.00;;
40322;SDS011;26030;51.164;17.100;2024-03-29T12:48:22;1.60;;;0.50;;
40322;SDS011;26030;51.164;17.100;2024-03-29T12:53:28;2.00;;;0.60;;
40322;SDS011;26030;51.164;17.100;2024-03-29T12:58:46;2.90;;;1.10;;
40322;SDS011;26030;51.164;17.100;2024-03-29T13:03:50;5.20;;;0.90;;
40322;SDS011;26030;51.164;17.100;2024-03-29T13:08:54;2.50;;;0.90;;
40322;SDS011;26030;51.164;17.100;2024-03-29T13:14:00;0.80;;;0.70;;
40322;SDS011;26030;51.164;17.100;2024-03-29T13:19:04;7.20;;;0.80;;
40322;SDS011;26030;51.164;17.100;2024-03-29T13:24:07;1.20;;;0.80;;
40322;SDS011;26030;51.164;17.100;2024-03-29T13:29:11;1.40;;;0.80;;
40322;SDS011;26030;51.164;17.100;2024-03-29T13:34:17;1.50;;;0.50;;
40322;SDS011;26030;51.164;17.100;2024-03-29T13:39:21;0.90;;;0.80;;
40322;SDS011;26030;51.164;17.100;2024-03-29T13:44:26;4.10;;;1.00;;
40322;SDS011;26030;51.164;17.100;2024-03-29T13:49:36;4.20;;;1.00;;
40322;SDS011;26030;51.164;17.100;2024-03-29T13:54:44;1.30;;;0.70;;
40322;SDS011;26030;51.164;17.100;2024-03-29T14:05:11;2.50;;;1.00;;
40322;SDS011;26030;51.164;17.100;2024-03-29T14:10:16;1.90;;;1.10;;
40322;SDS011;26030;51.164;17.100;2024-03-29T14:15:20;1.60;;;0.80;;
40322;SDS011;26030;51.164;17.100;2024-03-29T14:20:23;4.50;;;0.60;;
40322;SDS011;26030;51.164;17.100;2024-03-29T14:25:36;2.50;;;0.90;;
40322;SDS011;26030;51.164;17.100;2024-03-29T14:30:39;0.70;;;0.70;;
40322;SDS011;26030;51.164;17.100;2024-03-29T14:35:43;3.10;;;0.80;;
40322;SDS011;26030;51.164;17.100;2024-03-29T14:40:49;3.00;;;0.80;;
40322;SDS011;26030;51.164;17.100;2024-03-29T14:46:11;1.00;;;0.60;;
40322;SDS011;26030;51.164;17.100;2024-03-29T14:51:16;3.50;;;0.60;;
40322;SDS011;26030;51.164;17.100;2024-03-29T14:56:23;2.90;;;0.50;;
40322;SDS011;26030;51.164;17.100;2024-03-29T15:01:32;1.40;;;0.50;;
40322;SDS011;26030;51.164;17.100;2024-03-29T15:06:36;0.80;;;0.50;;
40322;SDS011;26030;51.164;17.100;2024-03-29T15:11:42;0.80;;;0.50;;
40322;SDS011;26030;51.164;17.100;2024-03-29T15:16:46;0.70;;;0.60;;
40322;SDS011;26030;51.164;17.100;2024-03-29T15:21:50;0.80;;;0.40;;
40322;SDS011;26030;51.164;17.100;2024-03-29T15:27:06;0.60;;;0.40;;
40322;SDS011;26030;51.164;17.100;2024-03-29T15:32:19;2.00;;;0.60;;
40322;SDS011;26030;51.164;17.100;2024-03-29T15:37:24;1.40;;;0.90;;
40322;SDS011;26030;51.164;17.100;2024-03-29T15:42:28;0.80;;;0.70;;
40322;SDS011;26030;51.164;17.100;2024-03-29T15:47:35;1.50;;;0.90;;
40322;SDS011;26030;51.164;17.100;2024-03-29T15:52:42;1.10;;;0.80;;
40322;SDS011;26030;51.164;17.100;2024-03-29T15:57:55;3.70;;;1.00;;
40322;SDS011;26030;51.164;17.100;2024-03-29T16:03:06;5.50;;;0.90;;
40322;SDS011;26030;51.164;17.100;2024-03-29T16:08:10;2.00;;;0.90;;
40322;SDS011;26030;51.164;17.100;2024-03-29T16:13:14;3.70;;;0.90;;
40322;SDS011;26030;51.164;17.100;2024-03-29T16:18:21;1.80;;;1.00;;
40322;SDS011;26030;51.164;17.100;2024-03-29T16:23:37;21.90;;;2.00;;
40322;SDS011;26030;51.164;17.100;2024-03-29T16:28:42;2.80;;;0.90;;
40322;SDS011;26030;51.164;17.100;2024-03-29T16:33:46;5.80;;;1.70;;
40322;SDS011;26030;51.164;17.100;2024-03-29T16:38:57;9.20;;;1.50;;
40322;SDS011;26030;51.164;17.100;2024-03-29T16:44:23;10.00;;;1.70;;
40322;SDS011;26030;51.164;17.100;2024-03-29T16:49:28;8.80;;;2.50;;
40322;SDS011;26030;51.164;17.100;2024-03-29T16:54:32;6.80;;;1.70;;
40322;SDS011;26030;51.164;17.100;2024-03-29T16:59:40;10.20;;;2.10;;
40322;SDS011;26030;51.164;17.100;2024-03-29T17:04:52;8.00;;;1.90;;
40322;SDS011;26030;51.164;17.100;2024-03-29T17:09:57;8.70;;;2.30;;
40322;SDS011;26030;51.164;17.100;2024-03-29T17:15:01;9.70;;;2.40;;
40322;SDS011;26030;51.164;17.100;2024-03-29T17:20:06;10.00;;;2.80;;
40322;SDS011;26030;51.164;17.100;2024-03-29T17:25:09;9.70;;;2.90;;
40322;SDS011;26030;51.164;17.100;2024-03-29T17:30:13;19.10;;;3.00;;
40322;SDS011;26030;51.164;17.100;2024-03-29T17:35:17;7.90;;;2.30;;
40322;SDS011;26030;51.164;17.100;2024-03-29T17:40:21;14.90;;;3.30;;
40322;SDS011;26030;51.164;17.100;2024-03-29T17:45:31;11.50;;;3.90;;
40322;SDS011;26030;51.164;17.100;2024-03-29T17:50:35;8.70;;;2.60;;
40322;SDS011;26030;51.164;17.100;2024-03-29T17:55:39;15.30;;;3.20;;
40322;SDS011;26030;51.164;17.100;2024-03-29T18:00:43;9.80;;;3.20;;
40322;SDS011;26030;51.164;17.100;2024-03-29T18:05:46;11.50;;;2.50;;
40322;SDS011;26030;51.164;17.100;2024-03-29T18:10:50;7.90;;;2.50;;
40322;SDS011;26030;51.164;17.100;2024-03-29T18:15:55;7.70;;;2.50;;
40322;SDS011;26030;51.164;17.100;2024-03-29T18:20:59;16.80;;;2.90;;
40322;SDS011;26030;51.164;17.100;2024-03-29T18:26:03;11.70;;;3.30;;
40322;SDS011;26030;51.164;17.100;2024-03-29T18:31:08;15.10;;;2.70;;
40322;SDS011;26030;51.164;17.100;2024-03-29T18:36:15;6.00;;;2.20;;
40322;SDS011;26030;51.164;17.100;2024-03-29T18:41:37;9.10;;;2.40;;
40322;SDS011;26030;51.164;17.100;2024-03-29T18:46:41;9.90;;;3.60;;
40322;SDS011;26030;51.164;17.100;2024-03-29T18:51:52;11.80;;;4.00;;
40322;SDS011;26030;51.164;17.100;2024-03-29T18:56:56;9.00;;;3.60;;
40322;SDS011;26030;51.164;17.100;2024-03-29T19:02:00;11.50;;;3.70;;
40322;SDS011;26030;51.164;17.100;2024-03-29T19:07:06;8.90;;;3.80;;
40322;SDS011;26030;51.164;17.100;2024-03-29T19:12:10;10.80;;;3.90;;
40322;SDS011;26030;51.164;17.100;2024-03-29T19:17:14;7.60;;;3.10;;
40322;SDS011;26030;51.164;17.100;2024-03-29T19:22:18;9.50;;;3.20;;
40322;SDS011;26030;51.164;17.100;2024-03-29T19:27:22;8.20;;;3.00;;
40322;SDS011;26030;51.164;17.100;2024-03-29T19:32:27;7.30;;;3.40;;
40322;SDS011;26030;51.164;17.100;2024-03-29T19:37:34;7.30;;;2.90;;
40322;SDS011;26030;51.164;17.100;2024-03-29T19:42:41;8.60;;;2.70;;
40322;SDS011;26030;51.164;17.100;2024-03-29T19:47:56;6.90;;;3.20;;
40322;SDS011;26030;51.164;17.100;2024-03-29T19:52:59;5.70;;;2.80;;
40322;SDS011;26030;51.164;17.100;2024-03-29T19:58:04;3.50;;;2.50;;
40322;SDS011;26030;51.164;17.100;2024-03-29T20:03:13;8.00;;;3.50;;
40322;SDS011;26030;51.164;17.100;2024-03-29T20:08:17;12.00;;;3.20;;
40322;SDS011;26030;51.164;17.100;2024-03-29T20:13:20;12.70;;;3.40;;
40322;SDS011;26030;51.164;17.100;2024-03-29T20:18:35;11.30;;;3.70;;
40322;SDS011;26030;51.164;17.100;2024-03-29T20:23:39;16.70;;;4.10;;
40322;SDS011;26030;51.164;17.100;2024-03-29T20:28:45;17.40;;;4.10;;
40322;SDS011;26030;51.164;17.100;2024-03-29T20:33:52;8.00;;;3.40;;
40322;SDS011;26030;51.164;17.100;2024-03-29T20:38:55;9.60;;;3.80;;
40322;SDS011;26030;51.164;17.100;2024-03-29T20:44:01;10.20;;;3.40;;
40322;SDS011;26030;51.164;17.100;2024-03-29T20:49:05;11.30;;;4.00;;
40322;SDS011;26030;51.164;17.100;2024-03-29T20:54:09;9.80;;;4.40;;
40322;SDS011;26030;51.164;17.100;2024-03-29T20:59:13;10.50;;;4.10;;
40322;SDS011;26030;51.164;17.100;2024-03-29T21:04:18;8.90;;;3.80;;
40322;SDS011;26030;51.164;17.100;2024-03-29T21:09:44;11.80;;;4.10;;
40322;SDS011;26030;51.164;17.100;2024-03-29T21:14:55;8.90;;;4.40;;
40322;SDS011;26030;51.164;17.100;2024-03-29T21:19:58;12.30;;;4.20;;
40322;SDS011;26030;51.164;17.100;2024-03-29T21:25:04;12.00;;;4.10;;
40322;SDS011;26030;51.164;17.100;2024-03-29T21:30:12;10.50;;;4.70;;
40322;SDS011;26030;51.164;17.100;2024-03-29T21:35:21;9.40;;;4.90;;
40322;SDS011;26030;51.164;17.100;2024-03-29T21:40:29;16.80;;;4.80;;
40322;SDS011;26030;51.164;17.100;2024-03-29T21:45:32;11.80;;;4.30;;
40322;SDS011;26030;51.164;17.100;2024-03-29T21:50:36;10.10;;;4.50;;
40322;SDS011;26030;51.164;17.100;2024-03-29T21:55:40;10.10;;;4.60;;
40322;SDS011;26030;51.164;17.100;2024-03-29T22:00:49;8.10;;;4.20;;
40322;SDS011;26030;51.164;17.100;2024-03-29T22:05:52;12.10;;;4.50;;
40322;SDS011;26030;51.164;17.100;2024-03-29T22:10:56;14.60;;;4.40;;
40322;SDS011;26030;51.164;17.100;2024-03-29T22:16:00;14.40;;;4.90;;
40322;SDS011;26030;51.164;17.100;2024-03-29T22:21:04;11.20;;;5.20;;
40322;SDS011;26030;51.164;17.100;2024-03-29T22:26:08;7.40;;;4.70;;
40322;SDS011;26030;51.164;17.100;2024-03-29T22:31:12;15.00;;;5.40;;
40322;SDS011;26030;51.164;17.100;2024-03-29T22:36:17;11.50;;;4.50;;
40322;SDS011;26030;51.164;17.100;2024-03-29T22:41:21;8.50;;;4.30;;
40322;SDS011;26030;51.164;17.100;2024-03-29T22:46:26;9.30;;;4.90;;
40322;SDS011;26030;51.164;17.100;2024-03-29T22:51:38;10.00;;;4.30;;
40322;SDS011;26030;51.164;17.100;2024-03-29T22:56:43;10.30;;;4.40;;
40322;SDS011;26030;51.164;17.100;2024-03-29T23:02:08;6.40;;;4.00;;
40322;SDS011;26030;51.164;17.100;2024-03-29T23:07:20;8.80;;;4.10;;
40322;SDS011;26030;51.164;17.100;2024-03-29T23:12:26;8.00;;;4.60;;
40322;SDS011;26030;51.164;17.100;2024-03-29T23:17:32;9.70;;;3.70;;
40322;SDS011;26030;51.164;17.100;2024-03-29T23:22:37;6.50;;;4.20;;
40322;SDS011;26030;51.164;17.100;2024-03-29T23:27:41;8.20;;;3.60;;
40322;SDS011;26030;51.164;17.100;2024-03-29T23:33:02;8.40;;;4.10;;
40322;SDS011;26030;51.164;17.100;2024-03-29T23:38:06;8.30;;;4.20;;
40322;SDS011;26030;51.164;17.100;2024-03-29T23:43:36;5.80;;;3.50;;
40322;SDS011;26030;51.164;17.100;2024-03-29T23:48:43;5.90;;;3.90;;
40322;SDS011;26030;51.164;17.100;2024-03-29T23:53:55;7.30;;;3.40;;
